sensor_id;sensor_type;location;lat;lon;timestamp;pressure;altitude;pressure_sealevel;temperature;humidity
21431;BME280;10876;49.038;10.608;2023-05-24T00:01:00;99254.03;;;11.89;100.00
21431;BME280;10876;49.038;10.608;2023-05-24T00:03:27;99257.31;;;11.91;100.00
21431;BME280;10876;49.038;10.608;2023-05-24T00:05:55;99251.38;;;11.84;100.00
21431;BME280;10876;49.038;10.608;2023-05-24T00:08:22;99252.59;;;11.78;100.00
21431;BME280;10876;49.038;10.608;2023-05-24T00:10:49;99258.28;;;11.67;100.00
21431;BME280;10876;49.038;10.608;2023-05-24T00:13:18;99257.28;;;11.63;100.00
21431;BME280;10876;49.038;10.608;2023-05-24T00:15:45;99254.72;;;11.53;100.00
21431;BME280;10876;49.038;10.608;2023-05-24T00:18:12;99253.31;;;11.42;100.00
21431;BME280;10876;49.038;10.608;2023-05-24T00:20:39;99258.56;;;10.92;100.00
21431;BME280;10876;49.038;10.608;2023-05-24T00:23:06;99256.91;;;10.58;100.00
21431;BME280;10876;49.038;10.608;2023-05-24T00:25:33;99256.34;;;10.42;100.00
21431;BME280;10876;49.038;10.608;2023-05-24T00:28:00;99254.84;;;10.31;100.00
21431;BME280;10876;49.038;10.608;2023-05-24T00:30:28;99254.28;;;10.10;100.00
21431;BME280;10876;49.038;10.608;2023-05-24T00:32:55;99268.63;;;10.02;100.00
21431;BME280;10876;49.038;10.608;2023-05-24T00:35:22;99252.41;;;9.86;100.00
21431;BME280;10876;49.038;10.608;2023-05-24T00:37:49;99245.84;;;9.87;100.00
21431;BME280;10876;49.038;10.608;2023-05-24T00:40:16;99242.09;;;9.78;100.00
21431;BME280;10876;49.038;10.608;2023-05-24T00:42:43;99242.69;;;9.75;100.00
21431;BME280;10876;49.038;10.608;2023-05-24T00:45:11;99237.34;;;9.65;100.00
21431;BME280;10876;49.038;10.608;2023-05-24T00:47:39;99242.09;;;9.78;100.00
21431;BME280;10876;49.038;10.608;2023-05-24T00:50:07;99232.81;;;9.79;100.00
21431;BME280;10876;49.038;10.608;2023-05-24T00:52:36;99232.06;;;9.92;100.00
21431;BME280;10876;49.038;10.608;2023-05-24T00:55:04;99228.47;;;10.16;100.00
21431;BME280;10876;49.038;10.608;2023-05-24T00:57:31;99221.09;;;10.35;100.00
21431;BME280;10876;49.038;10.608;2023-05-24T00:59:58;99218.06;;;10.56;100.00
21431;BME280;10876;49.038;10.608;2023-05-24T01:02:26;99219.50;;;10.67;100.00
21431;BME280;10876;49.038;10.608;2023-05-24T01:04:54;99214.84;;;10.68;100.00
21431;BME280;10876;49.038;10.608;2023-05-24T01:07:25;99215.06;;;10.71;100.00
21431;BME280;10876;49.038;10.608;2023-05-24T01:10:03;99217.47;;;10.59;100.00
21431;BME280;10876;49.038;10.608;2023-05-24T01:12:45;99216.00;;;10.48;100.00
21431;BME280;10876;49.038;10.608;2023-05-24T01:15:23;99223.53;;;10.56;100.00
21431;BME280;10876;49.038;10.608;2023-05-24T01:17:55;99209.53;;;10.57;100.00
21431;BME280;10876;49.038;10.608;2023-05-24T01:20:31;99205.31;;;10.65;100.00
21431;BME280;10876;49.038;10.608;2023-05-24T01:23:06;99200.03;;;10.69;100.00
21431;BME280;10876;49.038;10.608;2023-05-24T01:25:51;99205.81;;;10.67;100.00
21431;BME280;10876;49.038;10.608;2023-05-24T01:28:22;99215.16;;;10.66;100.00
21431;BME280;10876;49.038;10.608;2023-05-24T01:30:50;99201.53;;;10.23;100.00
21431;BME280;10876;49.038;10.608;2023-05-24T01:33:18;99215.16;;;9.90;100.00
21431;BME280;10876;49.038;10.608;2023-05-24T01:35:45;99215.91;;;9.72;100.00
21431;BME280;10876;49.038;10.608;2023-05-24T01:38:12;99215.28;;;9.80;100.00
21431;BME280;10876;49.038;10.608;2023-05-24T01:40:40;99206.03;;;9.76;100.00
21431;BME280;10876;49.038;10.608;2023-05-24T01:43:14;99209.25;;;9.78;100.00
21431;BME280;10876;49.038;10.608;2023-05-24T01:45:51;99209.94;;;9.70;100.00
21431;BME280;10876;49.038;10.608;2023-05-24T01:48:26;99205.81;;;9.48;100.00
21431;BME280;10876;49.038;10.608;2023-05-24T01:50:58;99214.06;;;9.43;100.00
21431;BME280;10876;49.038;10.608;2023-05-24T01:53:40;99208.16;;;9.36;100.00
21431;BME280;10876;49.038;10.608;2023-05-24T01:56:07;99212.31;;;9.29;100.00
21431;BME280;10876;49.038;10.608;2023-05-24T01:58:38;99230.34;;;9.30;100.00
21431;BME280;10876;49.038;10.608;2023-05-24T02:01:08;99230.13;;;9.26;100.00
21431;BME280;10876;49.038;10.608;2023-05-24T02:03:35;99238.34;;;9.21;100.00
21431;BME280;10876;49.038;10.608;2023-05-24T02:06:04;99235.97;;;9.14;100.00
21431;BME280;10876;49.038;10.608;2023-05-24T02:08:31;99245.03;;;9.10;100.00
21431;BME280;10876;49.038;10.608;2023-05-24T02:10:58;99245.94;;;9.00;100.00
21431;BME280;10876;49.038;10.608;2023-05-24T02:13:25;99246.53;;;8.97;100.00
21431;BME280;10876;49.038;10.608;2023-05-24T02:15:52;99233.22;;;8.90;100.00
21431;BME280;10876;49.038;10.608;2023-05-24T02:18:20;99231.59;;;8.84;100.00
21431;BME280;10876;49.038;10.608;2023-05-24T02:20:48;99238.78;;;8.75;100.00
21431;BME280;10876;49.038;10.608;2023-05-24T02:23:15;99238.50;;;8.76;100.00
21431;BME280;10876;49.038;10.608;2023-05-24T02:25:42;99233.88;;;8.77;100.00
21431;BME280;10876;49.038;10.608;2023-05-24T02:28:09;99231.69;;;8.74;100.00
21431;BME280;10876;49.038;10.608;2023-05-24T02:30:36;99232.47;;;8.79;100.00
21431;BME280;10876;49.038;10.608;2023-05-24T02:33:04;99238.78;;;8.75;100.00
21431;BME280;10876;49.038;10.608;2023-05-24T02:35:33;99238.41;;;8.87;100.00
21431;BME280;10876;49.038;10.608;2023-05-24T02:38:00;99250.59;;;8.99;100.00
21431;BME280;10876;49.038;10.608;2023-05-24T02:40:28;99251.69;;;8.98;100.00
21431;BME280;10876;49.038;10.608;2023-05-24T02:42:55;99242.06;;;9.06;100.00
21431;BME280;10876;49.038;10.608;2023-05-24T02:45:22;99248.41;;;9.31;100.00
21431;BME280;10876;49.038;10.608;2023-05-24T02:47:49;99245.03;;;9.39;100.00
21431;BME280;10876;49.038;10.608;2023-05-24T02:50:16;99240.41;;;9.34;100.00
21431;BME280;10876;49.038;10.608;2023-05-24T02:52:44;99249.25;;;9.26;100.00
21431;BME280;10876;49.038;10.608;2023-05-24T02:55:11;99247.09;;;9.23;100.00
21431;BME280;10876;49.038;10.608;2023-05-24T02:57:38;99241.09;;;9.21;100.00
21431;BME280;10876;49.038;10.608;2023-05-24T03:00:07;99235.69;;;9.16;100.00
21431;BME280;10876;49.038;10.608;2023-05-24T03:02:35;99239.88;;;9.08;100.00
21431;BME280;10876;49.038;10.608;2023-05-24T03:05:06;99232.53;;;9.03;100.00
21431;BME280;10876;49.038;10.608;2023-05-24T03:07:33;99235.28;;;8.98;100.00
21431;BME280;10876;49.038;10.608;2023-05-24T03:10:01;99227.09;;;8.98;100.00
21431;BME280;10876;49.038;10.608;2023-05-24T03:16:16;99236.78;;;8.86;100.00
21431;BME280;10876;49.038;10.608;2023-05-24T03:19:09;99231.59;;;8.84;100.00
21431;BME280;10876;49.038;10.608;2023-05-24T03:21:36;99223.47;;;8.79;100.00
21431;BME280;10876;49.038;10.608;2023-05-24T03:24:03;99227.81;;;8.80;100.00
21431;BME280;10876;49.038;10.608;2023-05-24T03:26:31;99221.13;;;8.96;100.00
21431;BME280;10876;49.038;10.608;2023-05-24T03:28:58;99219.84;;;9.13;100.00
21431;BME280;10876;49.038;10.608;2023-05-24T03:31:25;99221.97;;;9.21;100.00
21431;BME280;10876;49.038;10.608;2023-05-24T03:33:52;99219.09;;;9.36;100.00
21431;BME280;10876;49.038;10.608;2023-05-24T03:36:19;99214.13;;;9.38;100.00
21431;BME280;10876;49.038;10.608;2023-05-24T03:38:46;99215.34;;;9.51;100.00
21431;BME280;10876;49.038;10.608;2023-05-24T03:41:13;99212.75;;;9.65;100.00
21431;BME280;10876;49.038;10.608;2023-05-24T03:43:42;99213.19;;;9.72;100.00
21431;BME280;10876;49.038;10.608;2023-05-24T03:46:09;99207.72;;;9.72;100.00
21431;BME280;10876;49.038;10.608;2023-05-24T03:48:43;99207.00;;;9.61;100.00
21431;BME280;10876;49.038;10.608;2023-05-24T03:51:10;99200.22;;;9.59;100.00
21431;BME280;10876;49.038;10.608;2023-05-24T03:53:37;99210.16;;;9.50;100.00
21431;BME280;10876;49.038;10.608;2023-05-24T03:56:04;99212.44;;;9.42;100.00
21431;BME280;10876;49.038;10.608;2023-05-24T03:58:31;99220.78;;;9.56;100.00
21431;BME280;10876;49.038;10.608;2023-05-24T04:01:00;99217.09;;;9.66;100.00
21431;BME280;10876;49.038;10.608;2023-05-24T04:03:30;99202.75;;;9.74;100.00
21431;BME280;10876;49.038;10.608;2023-05-24T04:05:58;99207.66;;;9.77;100.00
21431;BME280;10876;49.038;10.608;2023-05-24T04:08:25;99210.09;;;9.79;100.00
21431;BME280;10876;49.038;10.608;2023-05-24T04:10:51;99207.22;;;9.70;100.00
21431;BME280;10876;49.038;10.608;2023-05-24T04:13:18;99211.25;;;9.73;100.00
21431;BME280;10876;49.038;10.608;2023-05-24T04:15:45;99201.75;;;9.70;100.00
21431;BME280;10876;49.038;10.608;2023-05-24T04:18:13;99203.88;;;9.73;100.00
21431;BME280;10876;49.038;10.608;2023-05-24T04:20:40;99200.31;;;9.73;100.00
21431;BME280;10876;49.038;10.608;2023-05-24T04:23:06;99210.44;;;9.72;100.00
21431;BME280;10876;49.038;10.608;2023-05-24T04:25:33;99215.47;;;9.65;100.00
21431;BME280;10876;49.038;10.608;2023-05-24T04:28:00;99223.94;;;9.63;100.00
21431;BME280;10876;49.038;10.608;2023-05-24T04:30:26;99232.91;;;9.69;100.00
21431;BME280;10876;49.038;10.608;2023-05-24T04:32:54;99230.13;;;9.74;100.00
21431;BME280;10876;49.038;10.608;2023-05-24T04:35:22;99238.50;;;9.83;100.00
21431;BME280;10876;49.038;10.608;2023-05-24T04:37:49;99236.78;;;9.87;100.00
21431;BME280;10876;49.038;10.608;2023-05-24T04:40:17;99238.66;;;9.91;100.00
21431;BME280;10876;49.038;10.608;2023-05-24T04:42:45;99237.19;;;9.99;100.00
21431;BME280;10876;49.038;10.608;2023-05-24T04:45:12;99241.84;;;9.99;100.00
21431;BME280;10876;49.038;10.608;2023-05-24T04:47:40;99238.44;;;10.07;100.00
21431;BME280;10876;49.038;10.608;2023-05-24T04:50:07;99237.94;;;10.05;100.00
21431;BME280;10876;49.038;10.608;2023-05-24T04:52:35;99236.00;;;10.05;100.00
21431;BME280;10876;49.038;10.608;2023-05-24T04:55:02;99234.03;;;10.11;100.00
21431;BME280;10876;49.038;10.608;2023-05-24T04:57:28;99224.69;;;10.12;100.00
21431;BME280;10876;49.038;10.608;2023-05-24T04:59:55;99218.34;;;10.17;100.00
21431;BME280;10876;49.038;10.608;2023-05-24T05:02:23;99220.03;;;10.12;100.00
21431;BME280;10876;49.038;10.608;2023-05-24T05:04:51;99215.66;;;10.11;100.00
21431;BME280;10876;49.038;10.608;2023-05-24T05:07:18;99218.03;;;10.18;100.00
21431;BME280;10876;49.038;10.608;2023-05-24T05:09:46;99222.31;;;10.24;100.00
21431;BME280;10876;49.038;10.608;2023-05-24T05:12:13;99227.25;;;10.27;100.00
21431;BME280;10876;49.038;10.608;2023-05-24T05:14:43;99226.06;;;10.33;100.00
21431;BME280;10876;49.038;10.608;2023-05-24T05:17:09;99226.66;;;10.30;100.00
21431;BME280;10876;49.038;10.608;2023-05-24T05:19:36;99222.59;;;10.28;100.00
21431;BME280;10876;49.038;10.608;2023-05-24T05:22:03;99228.28;;;10.31;100.00
21431;BME280;10876;49.038;10.608;2023-05-24T05:24:29;99222.00;;;10.31;100.00
21431;BME280;10876;49.038;10.608;2023-05-24T05:26:57;99215.03;;;10.38;100.00
21431;BME280;10876;49.038;10.608;2023-05-24T05:29:25;99204.44;;;10.51;100.00
21431;BME280;10876;49.038;10.608;2023-05-24T05:31:51;99208.19;;;10.55;100.00
21431;BME280;10876;49.038;10.608;2023-05-24T05:34:18;99208.72;;;10.57;100.00
21431;BME280;10876;49.038;10.608;2023-05-24T05:36:45;99198.78;;;10.61;100.00
21431;BME280;10876;49.038;10.608;2023-05-24T05:39:12;99199.03;;;10.65;100.00
21431;BME280;10876;49.038;10.608;2023-05-24T05:41:39;99202.66;;;10.60;100.00
21431;BME280;10876;49.038;10.608;2023-05-24T05:44:10;99198.78;;;10.61;100.00
21431;BME280;10876;49.038;10.608;2023-05-24T05:46:37;99199.38;;;10.58;100.00
21431;BME280;10876;49.038;10.608;2023-05-24T05:49:05;99199.81;;;10.65;100.00
21431;BME280;10876;49.038;10.608;2023-05-24T05:51:32;99204.25;;;10.61;100.00
21431;BME280;10876;49.038;10.608;2023-05-24T05:53:59;99198.19;;;10.64;100.00
21431;BME280;10876;49.038;10.608;2023-05-24T05:56:25;99195.97;;;10.66;100.00
21431;BME280;10876;49.038;10.608;2023-05-24T05:58:53;99199.22;;;10.68;100.00
21431;BME280;10876;49.038;10.608;2023-05-24T06:01:21;99202.09;;;10.77;100.00
21431;BME280;10876;49.038;10.608;2023-05-24T06:03:49;99203.91;;;10.81;100.00
21431;BME280;10876;49.038;10.608;2023-05-24T06:06:16;99194.00;;;10.86;100.00
21431;BME280;10876;49.038;10.608;2023-05-24T06:08:43;99198.34;;;10.87;100.00
21431;BME280;10876;49.038;10.608;2023-05-24T06:11:10;99213.59;;;10.93;100.00
21431;BME280;10876;49.038;10.608;2023-05-24T06:13:36;99221.81;;;10.93;100.00
21431;BME280;10876;49.038;10.608;2023-05-24T06:16:03;99223.66;;;10.97;100.00
21431;BME280;10876;49.038;10.608;2023-05-24T06:22:17;99220.03;;;11.02;100.00
21431;BME280;10876;49.038;10.608;2023-05-24T06:24:44;99225.72;;;11.05;100.00
21431;BME280;10876;49.038;10.608;2023-05-24T06:27:12;99235.63;;;11.01;100.00
21431;BME280;10876;49.038;10.608;2023-05-24T06:29:39;99245.19;;;11.04;100.00
21431;BME280;10876;49.038;10.608;2023-05-24T06:32:06;99242.56;;;10.99;100.00
21431;BME280;10876;49.038;10.608;2023-05-24T06:34:33;99247.25;;;11.12;100.00
21431;BME280;10876;49.038;10.608;2023-05-24T06:37:00;99243.41;;;11.13;100.00
21431;BME280;10876;49.038;10.608;2023-05-24T06:39:29;99256.84;;;11.28;100.00
21431;BME280;10876;49.038;10.608;2023-05-24T06:41:58;99254.50;;;11.22;100.00
21431;BME280;10876;49.038;10.608;2023-05-24T06:44:31;99258.44;;;11.30;100.00
21431;BME280;10876;49.038;10.608;2023-05-24T06:46:59;99265.34;;;11.13;100.00
21431;BME280;10876;49.038;10.608;2023-05-24T06:49:26;99272.38;;;11.19;100.00
21431;BME280;10876;49.038;10.608;2023-05-24T06:51:54;99271.56;;;11.33;100.00
21431;BME280;10876;49.038;10.608;2023-05-24T06:54:21;99280.63;;;11.33;100.00
21431;BME280;10876;49.038;10.608;2023-05-24T06:56:49;99278.38;;;11.35;100.00
21431;BME280;10876;49.038;10.608;2023-05-24T06:59:17;99284.66;;;11.36;100.00
21431;BME280;10876;49.038;10.608;2023-05-24T07:01:44;99291.34;;;11.30;100.00
21431;BME280;10876;49.038;10.608;2023-05-24T07:04:12;99288.91;;;11.14;100.00
21431;BME280;10876;49.038;10.608;2023-05-24T07:06:39;99293.78;;;11.17;100.00
21431;BME280;10876;49.038;10.608;2023-05-24T07:09:23;99294.41;;;11.28;100.00
21431;BME280;10876;49.038;10.608;2023-05-24T07:11:52;99308.75;;;11.39;100.00
21431;BME280;10876;49.038;10.608;2023-05-24T07:14:19;99311.28;;;11.35;100.00
21431;BME280;10876;49.038;10.608;2023-05-24T07:16:47;99300.50;;;11.39;100.00
21431;BME280;10876;49.038;10.608;2023-05-24T07:19:14;99305.00;;;11.35;100.00
21431;BME280;10876;49.038;10.608;2023-05-24T07:21:41;99306.44;;;11.46;100.00
21431;BME280;10876;49.038;10.608;2023-05-24T07:24:08;99308.28;;;11.50;100.00
21431;BME280;10876;49.038;10.608;2023-05-24T07:26:35;99314.38;;;11.61;100.00
21431;BME280;10876;49.038;10.608;2023-05-24T07:29:06;99310.56;;;11.76;100.00
21431;BME280;10876;49.038;10.608;2023-05-24T07:31:37;99312.38;;;11.81;100.00
21431;BME280;10876;49.038;10.608;2023-05-24T07:34:07;99315.81;;;11.72;100.00
21431;BME280;10876;49.038;10.608;2023-05-24T07:36:34;99306.47;;;11.73;100.00
21431;BME280;10876;49.038;10.608;2023-05-24T07:39:01;99309.72;;;11.76;100.00
21431;BME280;10876;49.038;10.608;2023-05-24T07:41:30;99312.16;;;11.63;100.00
21431;BME280;10876;49.038;10.608;2023-05-24T07:43:57;99309.72;;;11.62;100.00
21431;BME280;10876;49.038;10.608;2023-05-24T07:46:26;99321.50;;;11.62;100.00
21431;BME280;10876;49.038;10.608;2023-05-24T07:48:53;99318.25;;;11.60;100.00
21431;BME280;10876;49.038;10.608;2023-05-24T07:51:20;99330.84;;;11.61;100.00
21431;BME280;10876;49.038;10.608;2023-05-24T07:53:47;99321.06;;;11.55;100.00
21431;BME280;10876;49.038;10.608;2023-05-24T07:56:15;99318.22;;;11.46;100.00
21431;BME280;10876;49.038;10.608;2023-05-24T07:58:42;99323.72;;;11.60;100.00
21431;BME280;10876;49.038;10.608;2023-05-24T08:01:12;99313.38;;;11.57;100.00
21431;BME280;10876;49.038;10.608;2023-05-24T08:03:44;99328.22;;;11.84;100.00
21431;BME280;10876;49.038;10.608;2023-05-24T08:06:12;99331.53;;;11.86;100.00
21431;BME280;10876;49.038;10.608;2023-05-24T08:08:39;99322.59;;;12.08;100.00
21431;BME280;10876;49.038;10.608;2023-05-24T08:11:06;99329.88;;;12.12;100.00
21431;BME280;10876;49.038;10.608;2023-05-24T08:13:33;99329.06;;;12.26;100.00
21431;BME280;10876;49.038;10.608;2023-05-24T08:16:00;99325.59;;;12.34;100.00
21431;BME280;10876;49.038;10.608;2023-05-24T08:18:28;99333.94;;;12.29;100.00
21431;BME280;10876;49.038;10.608;2023-05-24T08:20:56;99346.56;;;12.30;100.00
21431;BME280;10876;49.038;10.608;2023-05-24T08:23:23;99335.56;;;12.30;100.00
21431;BME280;10876;49.038;10.608;2023-05-24T08:25:50;99322.97;;;12.29;100.00
21431;BME280;10876;49.038;10.608;2023-05-24T08:28:17;99326.41;;;12.48;100.00
21431;BME280;10876;49.038;10.608;2023-05-24T08:30:44;99323.44;;;12.45;100.00
21431;BME280;10876;49.038;10.608;2023-05-24T08:33:12;99329.03;;;12.53;100.00
21431;BME280;10876;49.038;10.608;2023-05-24T08:35:39;99315.19;;;12.45;100.00
21431;BME280;10876;49.038;10.608;2023-05-24T08:38:08;99325.38;;;12.44;100.00
21431;BME280;10876;49.038;10.608;2023-05-24T08:40:35;99325.09;;;12.82;100.00
21431;BME280;10876;49.038;10.608;2023-05-24T08:43:02;99327.56;;;12.70;100.00
21431;BME280;10876;49.038;10.608;2023-05-24T08:45:36;99328.63;;;12.46;100.00
21431;BME280;10876;49.038;10.608;2023-05-24T08:48:04;99338.72;;;12.37;100.00
21431;BME280;10876;49.038;10.608;2023-05-24T08:50:32;99340.53;;;12.42;100.00
21431;BME280;10876;49.038;10.608;2023-05-24T08:52:59;99331.69;;;12.45;100.00
21431;BME280;10876;49.038;10.608;2023-05-24T08:55:30;99340.16;;;12.34;100.00
21431;BME280;10876;49.038;10.608;2023-05-24T08:57:58;99336.38;;;12.44;100.00
21431;BME280;10876;49.038;10.608;2023-05-24T09:00:26;99334.22;;;12.41;100.00
21431;BME280;10876;49.038;10.608;2023-05-24T09:02:53;99329.06;;;12.26;100.00
21431;BME280;10876;49.038;10.608;2023-05-24T09:05:21;99325.63;;;12.06;100.00
21431;BME280;10876;49.038;10.608;2023-05-24T09:07:50;99335.19;;;11.95;100.00
21431;BME280;10876;49.038;10.608;2023-05-24T09:10:19;99332.72;;;12.07;100.00
21431;BME280;10876;49.038;10.608;2023-05-24T09:12:51;99330.50;;;12.23;100.00
21431;BME280;10876;49.038;10.608;2023-05-24T09:15:21;99336.09;;;12.32;100.00
21431;BME280;10876;49.038;10.608;2023-05-24T09:17:48;99328.78;;;12.13;100.00
21431;BME280;10876;49.038;10.608;2023-05-24T09:20:15;99330.91;;;12.16;100.00
21431;BME280;10876;49.038;10.608;2023-05-24T09:22:42;99336.41;;;12.16;100.00
21431;BME280;10876;49.038;10.608;2023-05-24T09:25:12;99340.25;;;12.29;100.00
21431;BME280;10876;49.038;10.608;2023-05-24T09:27:39;99342.19;;;12.29;100.00
21431;BME280;10876;49.038;10.608;2023-05-24T09:30:09;99346.97;;;12.37;100.00
21431;BME280;10876;49.038;10.608;2023-05-24T09:32:36;99349.00;;;12.31;100.00
21431;BME280;10876;49.038;10.608;2023-05-24T09:35:07;99345.13;;;12.18;100.00
21431;BME280;10876;49.038;10.608;2023-05-24T09:37:35;99347.78;;;12.24;100.00
21431;BME280;10876;49.038;10.608;2023-05-24T09:40:04;99342.28;;;12.37;100.00
21431;BME280;10876;49.038;10.608;2023-05-24T09:42:33;99343.50;;;12.45;100.00
21431;BME280;10876;49.038;10.608;2023-05-24T09:45:03;99344.31;;;12.32;100.00
21431;BME280;10876;49.038;10.608;2023-05-24T09:47:36;99342.28;;;12.24;100.00
21431;BME280;10876;49.038;10.608;2023-05-24T09:50:05;99351.34;;;12.38;100.00
21431;BME280;10876;49.038;10.608;2023-05-24T09:52:36;99362.66;;;12.23;100.00
21431;BME280;10876;49.038;10.608;2023-05-24T09:55:10;99366.81;;;12.20;100.00
21431;BME280;10876;49.038;10.608;2023-05-24T09:57:38;99358.88;;;11.91;100.00
21431;BME280;10876;49.038;10.608;2023-05-24T10:00:07;99353.97;;;12.02;100.00
21431;BME280;10876;49.038;10.608;2023-05-24T10:02:43;99366.50;;;11.94;100.00
21431;BME280;10876;49.038;10.608;2023-05-24T10:05:11;99371.94;;;11.80;100.00
21431;BME280;10876;49.038;10.608;2023-05-24T10:07:39;99369.09;;;11.71;100.00
21431;BME280;10876;49.038;10.608;2023-05-24T10:10:07;99365.13;;;11.78;100.00
21431;BME280;10876;49.038;10.608;2023-05-24T10:12:36;99368.13;;;11.95;100.00
21431;BME280;10876;49.038;10.608;2023-05-24T10:15:09;99371.19;;;11.93;100.00
21431;BME280;10876;49.038;10.608;2023-05-24T10:17:37;99372.38;;;11.87;100.00
21431;BME280;10876;49.038;10.608;2023-05-24T10:20:17;99375.09;;;11.73;100.00
21431;BME280;10876;49.038;10.608;2023-05-24T10:22:47;99366.25;;;11.77;100.00
21431;BME280;10876;49.038;10.608;2023-05-24T10:25:20;99371.56;;;11.87;100.00
21431;BME280;10876;49.038;10.608;2023-05-24T10:27:48;99364.84;;;11.93;100.00
21431;BME280;10876;49.038;10.608;2023-05-24T10:30:24;99350.56;;;11.96;100.00
21431;BME280;10876;49.038;10.608;2023-05-24T10:32:54;99351.66;;;11.95;100.00
21431;BME280;10876;49.038;10.608;2023-05-24T10:35:24;99340.94;;;11.80;100.00
21431;BME280;10876;49.038;10.608;2023-05-24T10:37:52;99343.50;;;11.90;100.00
21431;BME280;10876;49.038;10.608;2023-05-24T10:40:20;99347.06;;;12.04;100.00
21431;BME280;10876;49.038;10.608;2023-05-24T10:42:50;99346.16;;;11.95;100.00
21431;BME280;10876;49.038;10.608;2023-05-24T10:45:29;99352.69;;;11.99;100.00
21431;BME280;10876;49.038;10.608;2023-05-24T10:48:01;99347.47;;;11.98;100.00
21431;BME280;10876;49.038;10.608;2023-05-24T10:50:29;99357.78;;;12.20;100.00
21431;BME280;10876;49.038;10.608;2023-05-24T10:53:10;99347.50;;;12.25;100.00
21431;BME280;10876;49.038;10.608;2023-05-24T10:55:51;99347.59;;;12.20;100.00
21431;BME280;10876;49.038;10.608;2023-05-24T10:58:18;99342.53;;;12.13;100.00
21431;BME280;10876;49.038;10.608;2023-05-24T11:00:46;99339.03;;;12.35;100.00
21431;BME280;10876;49.038;10.608;2023-05-24T11:03:17;99341.06;;;12.30;100.00
21431;BME280;10876;49.038;10.608;2023-05-24T11:05:51;99341.38;;;12.42;100.00
21431;BME280;10876;49.038;10.608;2023-05-24T11:08:23;99341.91;;;12.67;100.00
21431;BME280;10876;49.038;10.608;2023-05-24T11:10:50;99339.06;;;12.72;100.00
21431;BME280;10876;49.038;10.608;2023-05-24T11:13:29;99329.81;;;12.68;100.00
21431;BME280;10876;49.038;10.608;2023-05-24T11:15:56;99326.75;;;12.69;100.00
21431;BME280;10876;49.038;10.608;2023-05-24T11:18:24;99310.59;;;12.68;100.00
21431;BME280;10876;49.038;10.608;2023-05-24T11:20:52;99312.59;;;12.26;100.00
21431;BME280;10876;49.038;10.608;2023-05-24T11:23:21;99318.25;;;12.43;100.00
21431;BME280;10876;49.038;10.608;2023-05-24T11:25:48;99307.53;;;12.55;100.00
21431;BME280;10876;49.038;10.608;2023-05-24T11:28:16;99305.81;;;12.59;100.00
21431;BME280;10876;49.038;10.608;2023-05-24T11:30:45;99303.41;;;12.44;100.00
21431;BME280;10876;49.038;10.608;2023-05-24T11:33:16;99301.06;;;12.51;100.00
21431;BME280;10876;49.038;10.608;2023-05-24T11:35:44;99295.91;;;12.22;100.00
21431;BME280;10876;49.038;10.608;2023-05-24T11:38:14;99296.91;;;12.26;100.00
21431;BME280;10876;49.038;10.608;2023-05-24T11:40:42;99298.16;;;12.20;100.00
21431;BME280;10876;49.038;10.608;2023-05-24T11:43:13;99298.97;;;12.21;100.00
21431;BME280;10876;49.038;10.608;2023-05-24T11:45:42;99302.41;;;12.26;100.00
21431;BME280;10876;49.038;10.608;2023-05-24T11:48:09;99301.97;;;12.33;100.00
21431;BME280;10876;49.038;10.608;2023-05-24T11:50:37;99304.88;;;12.28;100.00
21431;BME280;10876;49.038;10.608;2023-05-24T11:53:05;99311.78;;;12.25;100.00
21431;BME280;10876;49.038;10.608;2023-05-24T11:55:34;99306.47;;;12.29;100.00
21431;BME280;10876;49.038;10.608;2023-05-24T11:58:04;99301.72;;;12.21;100.00
21431;BME280;10876;49.038;10.608;2023-05-24T12:00:32;99296.31;;;12.15;100.00
21431;BME280;10876;49.038;10.608;2023-05-24T12:03:00;99300.19;;;12.01;100.00
21431;BME280;10876;49.038;10.608;2023-05-24T12:05:31;99299.41;;;12.00;100.00
21431;BME280;10876;49.038;10.608;2023-05-24T12:08:13;99300.81;;;11.98;100.00
21431;BME280;10876;49.038;10.608;2023-05-24T12:10:43;99306.41;;;12.06;100.00
21431;BME280;10876;49.038;10.608;2023-05-24T12:13:20;99305.50;;;12.11;100.00
21431;BME280;10876;49.038;10.608;2023-05-24T12:15:49;99298.25;;;12.29;100.00
21431;BME280;10876;49.038;10.608;2023-05-24T12:18:17;99304.25;;;12.31;100.00
21431;BME280;10876;49.038;10.608;2023-05-24T12:20:45;99297.03;;;12.21;100.00
21431;BME280;10876;49.038;10.608;2023-05-24T12:23:17;99299.47;;;12.36;100.00
21431;BME280;10876;49.038;10.608;2023-05-24T12:25:46;99304.19;;;12.45;100.00
21431;BME280;10876;49.038;10.608;2023-05-24T12:28:14;99286.44;;;12.65;100.00
21431;BME280;10876;49.038;10.608;2023-05-24T12:30:43;99280.50;;;12.49;100.00
21431;BME280;10876;49.038;10.608;2023-05-24T12:33:11;99283.34;;;12.80;100.00
21431;BME280;10876;49.038;10.608;2023-05-24T12:35:39;99271.59;;;13.11;100.00
21431;BME280;10876;49.038;10.608;2023-05-24T12:38:07;99280.34;;;13.13;100.00
21431;BME280;10876;49.038;10.608;2023-05-24T12:40:35;99288.59;;;13.35;100.00
21431;BME280;10876;49.038;10.608;2023-05-24T12:43:03;99284.09;;;13.39;100.00
21431;BME280;10876;49.038;10.608;2023-05-24T12:45:30;99262.78;;;13.22;100.00
21431;BME280;10876;49.038;10.608;2023-05-24T12:47:58;99256.25;;;13.18;100.00
21431;BME280;10876;49.038;10.608;2023-05-24T12:50:27;99255.66;;;13.52;100.00
21431;BME280;10876;49.038;10.608;2023-05-24T12:52:55;99247.00;;;13.68;100.00
21431;BME280;10876;49.038;10.608;2023-05-24T12:55:23;99249.88;;;13.63;100.00
21431;BME280;10876;49.038;10.608;2023-05-24T12:57:51;99243.75;;;13.66;100.00